createdAt,value
2019-04-20T00:02:20.654Z,16.68
2019-04-20T00:04:52.491Z,16.66
2019-04-20T00:07:30.923Z,16.66
2019-04-20T00:10:07.575Z,16.74
2019-04-20T00:12:42.338Z,16.72
2019-04-20T00:15:07.015Z,16.74
2019-04-20T00:17:50.834Z,16.81
2019-04-20T00:20:23.557Z,16.80
2019-04-20T00:23:02.098Z,16.80
2019-04-20T00:26:11.109Z,16.86
2019-04-20T00:28:58.877Z,17.00
2019-04-20T00:31:29.755Z,17.08
2019-04-20T00:34:02.766Z,17.17
2019-04-20T00:36:26.260Z,17.02
2019-04-20T00:39:02.663Z,16.99
2019-04-20T00:41:40.816Z,16.95
2019-04-20T00:44:13.262Z,16.91
2019-04-20T00:46:58.729Z,16.85
2019-04-20T00:49:36.246Z,16.84
2019-04-20T00:52:18.679Z,16.78
2019-04-20T00:54:24.304Z,16.67
2019-04-20T00:57:09.282Z,16.66
2019-04-20T00:59:51.410Z,16.60
2019-04-20T01:02:21.043Z,16.62
2019-04-20T01:04:57.825Z,16.62
2019-04-20T01:07:29.836Z,16.96
2019-04-20T01:10:06.974Z,17.01
2019-04-20T01:12:41.019Z,16.92
2019-04-20T01:15:23.654Z,16.83
2019-04-20T01:18:13.875Z,16.77
2019-04-20T01:20:51.455Z,16.74
2019-04-20T01:23:29.132Z,16.63
2019-04-20T01:26:22.515Z,16.48
2019-04-20T01:29:06.697Z,16.46
2019-04-20T01:31:36.351Z,16.38
2019-04-20T01:34:08.380Z,16.28
2019-04-20T01:36:50.424Z,16.32
2019-04-20T01:39:17.989Z,16.43
2019-04-20T01:41:43.465Z,16.42
2019-04-20T01:44:18.875Z,16.51
2019-04-20T01:46:53.275Z,16.56
2019-04-20T01:49:28.759Z,16.41
2019-04-20T01:52:07.529Z,16.27
2019-04-20T01:54:56.700Z,16.47
2019-04-20T01:58:00.605Z,16.63
2019-04-20T02:00:51.199Z,16.74
2019-04-20T02:03:52.477Z,16.74
2019-04-20T02:06:26.556Z,16.69
2019-04-20T02:09:03.170Z,16.73
2019-04-20T02:11:44.701Z,16.63
2019-04-20T02:14:24.966Z,16.63
2019-04-20T02:16:56.576Z,16.76
2019-04-20T02:19:34.623Z,16.74
2019-04-20T02:22:09.919Z,16.73
2019-04-20T02:24:29.919Z,16.64
2019-04-20T02:27:02.503Z,16.60
2019-04-20T02:29:58.214Z,16.65
2019-04-20T02:32:40.174Z,16.68
2019-04-20T02:35:34.618Z,16.69
2019-04-20T02:40:50.742Z,16.72
2019-04-20T02:43:35.846Z,16.75
2019-04-20T02:45:50.569Z,16.77
2019-04-20T02:51:09.974Z,17.16
2019-04-20T02:53:53.816Z,17.14
2019-04-20T02:56:12.312Z,17.21
2019-04-20T02:58:58.071Z,17.24
2019-04-20T03:01:43.528Z,17.18
2019-04-20T03:04:00.771Z,17.16
2019-04-20T03:06:39.850Z,17.33
2019-04-20T03:09:32.485Z,17.47
2019-04-20T03:12:23.871Z,17.48
2019-04-20T03:14:30.694Z,17.51
2019-04-20T03:17:15.316Z,17.49
2019-04-20T03:19:46.454Z,17.49
2019-04-20T03:22:35.046Z,17.64
2019-04-20T03:25:18.157Z,17.68
2019-04-20T03:27:45.981Z,17.68
2019-04-20T03:31:24.939Z,17.73
2019-04-20T03:33:51.010Z,17.72
2019-04-20T03:36:16.124Z,17.65
2019-04-20T03:38:33.046Z,17.76
2019-04-20T03:40:59.179Z,17.76
2019-04-20T03:43:22.167Z,17.89
2019-04-20T03:46:01.462Z,17.95
2019-04-20T03:48:48.348Z,17.98
2019-04-20T03:51:30.637Z,18.03
2019-04-20T03:54:21.857Z,17.98
2019-04-20T03:57:29.289Z,18.01
2019-04-20T04:00:05.133Z,18.24
2019-04-20T04:03:03.531Z,18.40
2019-04-20T04:05:27.498Z,18.53
2019-04-20T04:07:57.999Z,18.47
2019-04-20T04:10:30.497Z,18.40
2019-04-20T04:13:11.857Z,18.31
2019-04-20T04:15:52.031Z,18.14
2019-04-20T04:18:29.143Z,17.91
2019-04-20T04:21:03.001Z,17.68
2019-04-20T04:23:44.468Z,17.52
2019-04-20T04:26:24.556Z,17.40
2019-04-20T04:28:53.430Z,17.33
2019-04-20T04:31:33.373Z,17.25
2019-04-20T04:34:02.626Z,17.26
2019-04-20T04:36:36.080Z,17.33
2019-04-20T04:39:15.391Z,17.29
2019-04-20T04:41:52.294Z,17.23
2019-04-20T04:44:17.702Z,17.15
2019-04-20T04:46:42.619Z,17.16
2019-04-20T04:49:18.342Z,17.13
2019-04-20T04:51:52.017Z,17.11
2019-04-20T04:54:31.635Z,17.02
2019-04-20T04:56:50.842Z,17.09
2019-04-20T04:59:23.527Z,16.99
2019-04-20T05:01:58.391Z,16.86
2019-04-20T05:05:10.606Z,16.83
2019-04-20T05:07:43.876Z,16.77
2019-04-20T05:10:07.455Z,16.63
2019-04-20T05:12:40.929Z,16.54
2019-04-20T05:15:31.061Z,16.39
2019-04-20T05:18:42.777Z,16.35
2019-04-20T05:21:24.490Z,16.21
2019-04-20T05:24:04.504Z,15.83
2019-04-20T05:27:01.521Z,15.79
2019-04-20T05:29:17.084Z,15.61
2019-04-20T05:31:51.866Z,15.63
2019-04-20T05:34:38.765Z,15.67
2019-04-20T05:37:24.055Z,15.62
2019-04-20T05:39:45.391Z,15.66
2019-04-20T05:42:23.147Z,15.67
2019-04-20T05:44:55.959Z,15.50
2019-04-20T05:47:27.007Z,15.59
2019-04-20T05:49:57.082Z,15.80
2019-04-20T05:52:42.666Z,15.74
2019-04-20T05:55:12.567Z,15.55
2019-04-20T05:57:46.903Z,15.44
2019-04-20T06:00:19.185Z,15.41
2019-04-20T06:02:52.506Z,15.40
2019-04-20T06:05:28.826Z,15.35
2019-04-20T06:08:03.479Z,15.21
2019-04-20T06:10:38.429Z,15.30
2019-04-20T06:13:08.994Z,15.34
2019-04-20T06:15:53.958Z,15.33
2019-04-20T06:18:28.366Z,15.40
2019-04-20T06:21:13.646Z,15.66
2019-04-20T06:24:06.637Z,15.79
2019-04-20T06:29:04.249Z,16.18
2019-04-20T06:31:45.913Z,16.69
2019-04-20T06:34:33.047Z,17.41
2019-04-20T06:39:40.619Z,18.69
2019-04-20T06:42:15.238Z,19.36
2019-04-20T06:44:41.184Z,20.41
2019-04-20T06:47:22.795Z,21.82
2019-04-20T06:49:53.604Z,23.15
2019-04-20T06:52:45.408Z,24.30
2019-04-20T06:55:15.728Z,25.36
2019-04-20T06:57:45.047Z,26.30
2019-04-20T07:00:35.106Z,27.00
2019-04-20T07:02:53.903Z,28.10
2019-04-20T07:05:48.982Z,28.96
2019-04-20T07:08:15.592Z,29.64
2019-04-20T07:10:40.734Z,29.54
2019-04-20T07:13:06.217Z,30.63
2019-04-20T07:15:54.484Z,31.55
2019-04-20T07:18:35.262Z,32.11
2019-04-20T07:21:16.090Z,33.21
2019-04-20T07:23:59.070Z,34.05
2019-04-20T07:26:29.213Z,34.91
2019-04-20T07:29:00.718Z,35.65
2019-04-20T07:31:32.056Z,36.19
2019-04-20T07:34:10.483Z,36.74
2019-04-20T07:36:45.816Z,37.39
2019-04-20T07:39:21.601Z,38.05
2019-04-20T07:41:54.598Z,38.24
2019-04-20T07:44:36.358Z,38.41
2019-04-20T07:47:07.671Z,38.67
2019-04-20T07:49:35.754Z,38.37
2019-04-20T07:51:50.625Z,38.98
2019-04-20T07:54:46.934Z,36.52
2019-04-20T07:57:14.338Z,36.16
2019-04-20T07:59:50.908Z,35.81
2019-04-20T08:02:57.397Z,36.92
2019-04-20T08:05:39.180Z,37.24
2019-04-20T08:08:18.039Z,36.35
2019-04-20T08:10:54.404Z,36.75
2019-04-20T08:16:06.719Z,39.21
2019-04-20T08:18:41.607Z,39.03
2019-04-20T08:21:12.973Z,38.71
2019-04-20T08:23:58.169Z,37.42
2019-04-20T08:26:11.293Z,39.02
2019-04-20T08:28:48.604Z,38.40
2019-04-20T08:31:35.903Z,40.03
2019-04-20T08:34:27.649Z,41.60
2019-04-20T08:36:57.359Z,42.08
2019-04-20T08:39:48.163Z,42.90
2019-04-20T08:42:08.807Z,41.81
2019-04-20T08:47:30.572Z,44.75
2019-04-20T08:50:19.834Z,45.24
2019-04-20T08:53:08.918Z,45.27
2019-04-20T08:55:23.487Z,45.87
2019-04-20T08:57:39.966Z,46.69
2019-04-20T09:00:13.257Z,45.91
2019-04-20T09:02:55.600Z,45.87
2019-04-20T09:05:36.893Z,45.77
2019-04-20T09:08:09.289Z,46.63
2019-04-20T09:10:49.537Z,44.37
2019-04-20T09:13:19.757Z,44.31
2019-04-20T09:15:42.545Z,45.02
2019-04-20T09:18:27.176Z,45.61
2019-04-20T09:21:01.138Z,45.98
2019-04-20T09:23:45.678Z,46.27
2019-04-20T09:26:29.733Z,45.80
2019-04-20T09:29:01.677Z,45.97
2019-04-20T09:31:43.739Z,43.38
2019-04-20T09:34:34.030Z,41.18
2019-04-20T09:37:36.931Z,44.04
2019-04-20T09:40:28.143Z,45.30
2019-04-20T09:42:54.016Z,45.82
2019-04-20T09:45:47.607Z,45.78
2019-04-20T09:48:25.244Z,45.60
2019-04-20T09:51:12.782Z,47.12
2019-04-20T09:53:39.050Z,47.90
2019-04-20T09:56:18.139Z,45.31
2019-04-20T09:58:55.243Z,46.22
2019-04-20T10:01:19.035Z,46.55
2019-04-20T10:03:44.980Z,46.79
2019-04-20T10:06:23.077Z,47.10
2019-04-20T10:08:56.036Z,46.55
2019-04-20T10:11:25.568Z,44.21
2019-04-20T10:13:58.522Z,45.08
2019-04-20T10:16:31.507Z,44.76
2019-04-20T10:19:04.914Z,42.62
2019-04-20T10:21:38.273Z,42.42
2019-04-20T10:24:10.627Z,41.59
2019-04-20T10:26:42.848Z,41.40
2019-04-20T10:29:15.454Z,43.39
2019-04-20T10:31:54.669Z,42.20
2019-04-20T10:34:24.010Z,41.42
2019-04-20T10:37:15.929Z,40.57
2019-04-20T10:39:48.749Z,38.83
2019-04-20T10:42:21.155Z,38.11
2019-04-20T10:44:56.707Z,38.50
2019-04-20T10:47:27.389Z,38.60
2019-04-20T10:49:59.349Z,37.19
2019-04-20T10:52:32.009Z,37.40
2019-04-20T10:55:08.274Z,36.93
2019-04-20T10:57:41.756Z,36.75
2019-04-20T11:00:17.521Z,36.38
2019-04-20T11:02:51.258Z,36.51
2019-04-20T11:05:24.473Z,37.44
2019-04-20T11:07:59.914Z,36.30
2019-04-20T11:10:49.385Z,38.23
2019-04-20T11:13:09.523Z,37.48
2019-04-20T11:15:42.223Z,37.04
2019-04-20T11:18:15.491Z,36.33
2019-04-20T11:20:49.113Z,36.07
2019-04-20T11:23:24.339Z,36.18
2019-04-20T11:25:58.309Z,36.89
2019-04-20T11:28:30.411Z,37.13
2019-04-20T11:31:03.966Z,36.18
2019-04-20T11:33:40.403Z,36.11
2019-04-20T11:36:13.005Z,35.32
2019-04-20T11:38:45.100Z,35.87
2019-04-20T11:41:23.781Z,36.37
2019-04-20T11:43:53.782Z,35.63
2019-04-20T11:46:26.945Z,35.02
2019-04-20T11:49:01.337Z,34.38
2019-04-20T11:51:37.314Z,34.37
2019-04-20T11:54:10.446Z,33.76
2019-04-20T11:56:46.392Z,32.22
2019-04-20T11:59:16.949Z,31.61
2019-04-20T12:02:00.953Z,31.26
2019-04-20T12:04:45.478Z,30.28
2019-04-20T12:07:11.118Z,29.68
2019-04-20T12:09:43.788Z,29.07
2019-04-20T12:12:27.261Z,29.07
2019-04-20T12:14:50.544Z,29.10
2019-04-20T12:17:23.762Z,28.58
2019-04-20T12:19:55.880Z,28.46
2019-04-20T12:22:28.307Z,28.60
2019-04-20T12:25:02.548Z,28.59
2019-04-20T12:27:36.655Z,27.94
2019-04-20T12:30:09.970Z,28.10
2019-04-20T12:32:47.787Z,28.44
2019-04-20T12:35:18.153Z,28.42
2019-04-20T12:37:52.401Z,28.54
2019-04-20T12:40:25.823Z,28.19
2019-04-20T12:43:02.069Z,28.43
2019-04-20T12:45:35.666Z,28.74
2019-04-20T12:48:08.089Z,28.46
2019-04-20T12:50:41.527Z,28.40
2019-04-20T12:53:14.810Z,28.54
2019-04-20T12:55:50.584Z,28.60
2019-04-20T12:58:23.001Z,28.59
2019-04-20T13:00:56.335Z,28.20
2019-04-20T13:03:29.767Z,28.18
2019-04-20T13:06:03.808Z,28.42
2019-04-20T13:08:42.206Z,28.40
2019-04-20T13:11:22.810Z,28.71
2019-04-20T13:14:38.577Z,28.84
2019-04-20T13:17:14.886Z,28.84
2019-04-20T13:19:47.137Z,28.52
2019-04-20T13:22:19.553Z,28.50
2019-04-20T13:24:52.713Z,28.75
2019-04-20T13:27:27.048Z,28.91
2019-04-20T13:30:00.745Z,28.89
2019-04-20T13:32:36.478Z,28.76
2019-04-20T13:35:10.059Z,28.80
2019-04-20T13:37:44.020Z,28.71
2019-04-20T13:40:17.743Z,28.70
2019-04-20T13:42:49.924Z,28.76
2019-04-20T13:45:22.302Z,28.78
2019-04-20T13:47:55.108Z,28.91
2019-04-20T13:50:29.853Z,29.08
2019-04-20T13:53:03.255Z,29.22
2019-04-20T13:55:36.001Z,29.04
2019-04-20T13:58:13.887Z,29.13
2019-04-20T14:01:03.051Z,29.20
2019-04-20T14:03:36.573Z,29.12
2019-04-20T14:06:10.952Z,29.20
2019-04-20T14:08:45.304Z,29.31
2019-04-20T14:11:17.797Z,29.32
2019-04-20T14:13:55.364Z,29.29
2019-04-20T14:16:25.030Z,29.11
2019-04-20T14:18:58.702Z,28.88
2019-04-20T14:21:38.414Z,28.87
2019-04-20T14:24:10.958Z,28.78
2019-04-20T14:26:44.568Z,29.09
2019-04-20T14:29:17.169Z,29.19
2019-04-20T14:31:50.033Z,29.00
2019-04-20T14:34:24.737Z,29.20
2019-04-20T14:36:57.098Z,29.30
2019-04-20T14:39:30.267Z,29.19
2019-04-20T14:42:04.472Z,29.23
2019-04-20T14:44:37.491Z,29.17
2019-04-20T14:47:09.867Z,29.03
2019-04-20T14:49:42.998Z,28.97
2019-04-20T14:52:15.927Z,28.69
2019-04-20T14:54:47.930Z,28.79
2019-04-20T14:57:23.412Z,28.96
2019-04-20T15:00:01.268Z,28.92
2019-04-20T15:02:36.193Z,28.97
2019-04-20T15:05:09.028Z,28.89
2019-04-20T15:07:41.052Z,28.68
2019-04-20T15:10:13.154Z,28.59
2019-04-20T15:12:52.549Z,28.71
2019-04-20T15:15:20.702Z,28.62
2019-04-20T15:18:05.833Z,28.73
2019-04-20T15:20:41.646Z,28.66
2019-04-20T15:23:25.734Z,28.77
2019-04-20T15:26:00.735Z,28.64
2019-04-20T15:28:32.730Z,28.57
2019-04-20T15:31:06.010Z,28.46
2019-04-20T15:33:39.106Z,28.55
2019-04-20T15:36:11.474Z,28.58
2019-04-20T15:38:43.514Z,28.68
2019-04-20T15:41:16.861Z,28.56
2019-04-20T15:43:49.394Z,28.45
2019-04-20T15:46:21.806Z,28.39
2019-04-20T15:48:53.883Z,28.31
2019-04-20T15:51:25.910Z,28.33
2019-04-20T15:53:58.053Z,28.38
2019-04-20T15:56:30.219Z,28.43
2019-04-20T15:59:04.264Z,28.28
2019-04-20T16:01:45.077Z,28.37
2019-04-20T16:04:39.041Z,28.39
2019-04-20T16:07:10.893Z,28.48
2019-04-20T16:09:44.332Z,28.53
2019-04-20T16:12:17.261Z,28.63
2019-04-20T16:14:51.735Z,28.61
2019-04-20T16:17:32.776Z,28.83
2019-04-20T16:20:06.198Z,28.99
2019-04-20T16:22:36.726Z,28.86
2019-04-20T16:25:23.489Z,28.86
2019-04-20T16:27:56.125Z,28.86
2019-04-20T16:30:31.711Z,28.98
2019-04-20T16:33:04.392Z,28.90
2019-04-20T16:35:36.438Z,28.89
2019-04-20T16:38:10.718Z,28.87
2019-04-20T16:40:44.357Z,28.88
2019-04-20T16:43:24.439Z,28.87
2019-04-20T16:45:50.990Z,28.79
2019-04-20T16:48:26.233Z,28.73
2019-04-20T16:50:58.715Z,28.75
2019-04-20T16:53:32.938Z,28.75
2019-04-20T16:56:06.606Z,28.50
2019-04-20T16:58:39.976Z,28.54
2019-04-20T17:01:12.060Z,28.54
2019-04-20T17:03:57.842Z,28.28
2019-04-20T17:06:20.589Z,28.13
2019-04-20T17:08:52.928Z,28.13
2019-04-20T17:11:27.615Z,28.38
2019-04-20T17:14:01.690Z,28.33
2019-04-20T17:16:35.621Z,28.35
2019-04-20T17:19:09.991Z,28.17
2019-04-20T17:21:42.456Z,28.25
2019-04-20T17:24:17.464Z,28.07
2019-04-20T17:27:05.301Z,27.92
2019-04-20T17:29:48.597Z,27.87
2019-04-20T17:32:23.533Z,27.88
2019-04-20T17:35:09.113Z,27.77
2019-04-20T17:37:33.723Z,27.58
2019-04-20T17:40:27.025Z,27.61
2019-04-20T17:42:50.872Z,27.49
2019-04-20T17:45:24.805Z,27.40
2019-04-20T17:48:03.245Z,27.63
2019-04-20T17:53:59.905Z,27.67
2019-04-20T17:56:30.695Z,27.60
2019-04-20T17:59:04.527Z,27.46
2019-04-20T18:02:09.066Z,27.26
2019-04-20T18:04:56.944Z,27.15
2019-04-20T18:07:28.421Z,27.17
2019-04-20T18:09:58.899Z,27.15
2019-04-20T18:12:23.156Z,27.11
2019-04-20T18:15:08.089Z,27.27
2019-04-20T18:17:54.690Z,27.19
2019-04-20T18:20:32.625Z,27.07
2019-04-20T18:23:06.573Z,26.91
2019-04-20T18:26:04.768Z,26.83
2019-04-20T18:28:26.443Z,26.79
2019-04-20T18:31:09.111Z,26.73
2019-04-20T18:33:44.472Z,26.47
2019-04-20T18:36:23.367Z,26.25
2019-04-20T18:38:57.393Z,26.13
2019-04-20T18:41:34.927Z,26.00
2019-04-20T18:44:02.641Z,25.98
2019-04-20T18:47:00.431Z,26.00
2019-04-20T18:49:23.740Z,26.04
2019-04-20T18:51:43.845Z,26.05
2019-04-20T18:54:21.344Z,26.06
2019-04-20T18:56:52.541Z,26.05
2019-04-20T18:59:35.182Z,25.98
2019-04-20T19:15:58.700Z,25.21
2019-04-20T19:32:05.769Z,24.31
2019-04-20T19:34:39.237Z,23.96
2019-04-20T19:37:03.864Z,23.80
2019-04-20T19:39:47.434Z,23.70
2019-04-20T19:42:18.124Z,23.80
2019-04-20T19:44:53.257Z,23.66
2019-04-20T19:47:32.370Z,23.55
2019-04-20T19:50:10.966Z,23.37
2019-04-20T19:52:44.820Z,23.34
2019-04-20T19:55:10.511Z,23.23
2019-04-20T19:57:45.511Z,23.16
2019-04-20T20:00:06.373Z,23.03
2019-04-20T20:02:41.469Z,22.94
2019-04-20T20:05:17.572Z,22.87
2019-04-20T20:07:52.735Z,22.75
2019-04-20T20:10:30.218Z,22.67
2019-04-20T20:13:00.664Z,22.53
2019-04-20T20:15:34.319Z,22.44
2019-04-20T20:18:27.421Z,22.35
2019-04-20T20:20:55.440Z,22.26
2019-04-20T20:23:14.447Z,22.11
2019-04-20T20:25:49.644Z,22.03
2019-04-20T20:28:30.504Z,21.90
2019-04-20T20:31:05.997Z,21.78
2019-04-20T20:33:43.843Z,21.53
2019-04-20T20:36:11.823Z,21.50
2019-04-20T20:38:43.705Z,21.44
2019-04-20T20:41:21.809Z,21.42
2019-04-20T20:43:57.668Z,21.33
2019-04-20T20:46:30.643Z,21.27
2019-04-20T20:49:09.422Z,21.18
2019-04-20T20:51:49.845Z,21.11
2019-04-20T20:54:11.337Z,21.04
2019-04-20T20:56:48.680Z,20.86
2019-04-20T20:59:25.745Z,20.64
2019-04-20T21:01:52.396Z,20.60
2019-04-20T21:04:21.672Z,20.56
2019-04-20T21:06:55.890Z,20.51
2019-04-20T21:09:31.228Z,20.46
2019-04-20T21:12:09.144Z,20.40
2019-04-20T21:14:40.562Z,20.31
2019-04-20T21:17:17.923Z,20.18
2019-04-20T21:20:03.503Z,20.15
2019-04-20T21:22:43.548Z,20.07
2019-04-20T21:24:56.872Z,20.09
2019-04-20T21:27:29.785Z,20.11
2019-04-20T21:30:03.997Z,20.03
2019-04-20T21:32:44.171Z,20.00
2019-04-20T21:35:15.613Z,19.98
2019-04-20T21:37:51.234Z,19.93
2019-04-20T21:40:31.542Z,19.84
2019-04-20T21:43:05.076Z,19.80
2019-04-20T21:45:37.215Z,19.76
2019-04-20T21:48:12.788Z,19.66
2019-04-20T21:50:59.801Z,19.64
2019-04-20T21:53:20.363Z,19.50
2019-04-20T21:55:50.141Z,19.47
2019-04-20T21:58:27.745Z,19.32
2019-04-20T22:01:09.551Z,19.17
2019-04-20T22:03:34.218Z,19.07
2019-04-20T22:06:08.992Z,19.05
2019-04-20T22:08:47.987Z,19.01
2019-04-20T22:11:15.808Z,19.00
2019-04-20T22:13:53.376Z,19.01
2019-04-20T22:16:41.704Z,19.05
2019-04-20T22:19:25.031Z,19.12
2019-04-20T22:21:59.427Z,19.14
2019-04-20T22:24:39.902Z,19.15
2019-04-20T22:27:05.013Z,19.16
2019-04-20T22:29:28.076Z,19.22
2019-04-20T22:32:06.267Z,19.20
2019-04-20T22:35:12.599Z,19.23
2019-04-20T22:38:07.024Z,19.21
2019-04-20T22:40:36.704Z,19.19
2019-04-20T22:43:10.367Z,19.20
2019-04-20T22:45:47.364Z,19.09
2019-04-20T22:48:19.287Z,19.11
2019-04-20T22:51:12.326Z,19.04
2019-04-20T22:53:36.496Z,18.99
2019-04-20T22:56:21.141Z,19.00
2019-04-20T22:58:43.267Z,18.99
2019-04-20T23:01:19.342Z,19.02
2019-04-20T23:03:41.119Z,18.87
2019-04-20T23:06:20.782Z,18.77
2019-04-20T23:08:59.521Z,18.76
2019-04-20T23:11:31.495Z,18.79
2019-04-20T23:14:02.372Z,18.72
2019-04-20T23:16:43.196Z,18.70
2019-04-20T23:19:10.407Z,18.52
2019-04-20T23:21:49.609Z,18.56
2019-04-20T23:24:19.863Z,18.48
2019-04-20T23:26:53.166Z,18.26
2019-04-20T23:29:29.578Z,18.06
2019-04-20T23:32:04.450Z,18.05
2019-04-20T23:34:34.598Z,17.96
2019-04-20T23:37:24.580Z,17.80
2019-04-20T23:39:52.407Z,17.77
2019-04-20T23:42:33.670Z,17.71
2019-04-20T23:45:45.622Z,17.67
2019-04-20T23:48:33.702Z,17.69
2019-04-20T23:51:29.994Z,17.57
2019-04-20T23:53:51.168Z,17.54
2019-04-20T23:56:18.410Z,17.46
2019-04-20T23:58:51.832Z,17.42
